Time;durP1;ratioP1;P1;durP2;ratioP2;P2;SDS_P1;SDS_P2;PMS_P1;PMS_P2;Temp;Humidity;BMP_temperature;BMP_pressure;BME280_temperature;BME280_humidity;BME280_pressure;Samples;Min_cycle;Max_cycle;Signal;HPM_P1;HPM_P2
2021/11/19 00:00:52;;;;;;;2.07;1.30;;;;;;;2.73;71.45;99876.75;5051347;28;20279;-76
2021/11/19 00:03:20;;;;;;;2.03;1.60;;;;;;;2.72;71.35;99882.97;5052814;28;20570;-72
2021/11/19 00:05:47;;;;;;;2.72;1.42;;;;;;;2.23;70.55;99805.75;5052667;28;20279;-74
2021/11/19 00:08:15;;;;;;;1.57;1.30;;;;;;;2.75;70.96;99882.69;5052346;28;20360;-75
2021/11/19 00:10:41;;;;;;;1.67;1.33;;;;;;;2.70;70.53;99877.84;5052691;28;20358;-75
2021/11/19 00:13:07;;;;;;;1.73;1.60;;;;;;;2.67;71.39;99872.84;5051162;28;20346;-76
2021/11/19 00:15:33;;;;;;;2.33;1.27;;;;;;;2.74;70.73;99889.75;5052036;28;20075;-75
2021/11/19 00:17:59;;;;;;;3.10;1.30;;;;;;;2.80;71.10;99902.34;5052109;28;20036;-74
2021/11/19 00:20:28;;;;;;;1.67;1.20;;;;;;;2.77;70.77;99901.78;5053054;28;20292;-77
2021/11/19 00:23:00;;;;;;;;;;;;;;;2.83;70.83;99903.88;5057039;28;20425;-71
2021/11/19 00:25:27;;;;;;;3.00;1.40;;;;;;;2.76;70.62;99897.50;5053631;28;20003;-77
2021/11/19 00:27:53;;;;;;;1.63;1.43;;;;;;;2.83;71.09;99901.25;5054504;28;20267;-74
2021/11/19 00:30:21;;;;;;;4.83;1.63;;;;;;;2.71;70.64;99881.31;5054246;28;20662;-74
2021/11/19 00:32:47;;;;;;;2.20;1.17;;;;;;;2.69;70.91;99875.34;5052987;28;20320;-77
2021/11/19 00:35:15;;;;;;;8.73;1.57;;;;;;;2.66;70.06;99876.44;5054193;28;20283;-74
2021/11/19 00:37:42;;;;;;;1.00;1.00;;;;;;;2.75;70.69;99896.69;5055731;28;20044;-75
2021/11/19 00:40:19;;;;;;;3.93;1.93;;;;;;;2.68;70.52;99878.94;5053792;28;20646;-74
2021/11/19 00:42:45;;;;;;;1.27;1.17;;;;;;;2.73;70.73;99885.47;5054055;28;20816;-73
2021/11/19 00:45:11;;;;;;;4.00;1.57;;;;;;;2.68;70.20;99884.19;5053869;28;20271;-74
2021/11/19 00:47:37;;;;;;;1.83;1.17;;;;;;;2.48;70.70;99854.38;5054174;28;20032;-76
2021/11/19 00:50:08;;;;;;;1.27;1.17;;;;;;;2.52;71.27;99887.31;5052714;28;20769;-75
2021/11/19 00:52:34;;;;;;;3.47;1.30;;;;;;;2.24;71.52;99861.75;5050664;28;20048;-76
2021/11/19 00:55:00;;;;;;;1.40;1.20;;;;;;;2.40;71.81;99891.00;5051563;28;20374;-72
2021/11/19 00:57:25;;;;;;;2.03;1.20;;;;;;;2.43;71.98;99893.38;5051477;28;20036;-73
2021/11/19 00:59:51;;;;;;;3.63;1.40;;;;;;;2.25;72.57;99860.78;5051671;28;20098;-72
2021/11/19 01:02:23;;;;;;;2.83;1.40;;;;;;;2.37;72.48;99893.91;5051392;28;20521;-72
2021/11/19 01:04:50;;;;;;;2.17;1.30;;;;;;;2.25;72.77;99887.06;5051683;28;20052;-75
2021/11/19 01:07:18;;;;;;;4.27;2.10;;;;;;;2.08;73.04;99870.94;5051606;28;20263;-74
2021/11/19 01:09:52;;;;;;;2.30;1.63;;;;;;;2.07;73.58;99866.66;5051240;28;20372;-74
2021/11/19 01:12:21;;;;;;;4.03;1.60;;;;;;;2.06;73.26;99872.03;5051189;28;20386;-75
2021/11/19 01:15:00;;;;;;;3.30;1.23;;;;;;;2.15;73.30;99866.81;5050400;28;20362;-71
2021/11/19 01:17:33;;;;;;;1.40;1.30;;;;;;;2.24;73.04;99864.38;5051789;28;20021;-74
2021/11/19 01:20:07;;;;;;;2.77;1.30;;;;;;;2.33;72.65;99871.47;5052284;28;20343;-73
2021/11/19 01:22:36;;;;;;;1.40;1.30;;;;;;;2.46;72.33;99879.97;5055027;28;20289;-77
2021/11/19 01:25:07;;;;;;;3.38;2.10;;;;;;;2.39;72.47;99868.31;5054358;28;20264;-76
2021/11/19 01:27:35;;;;;;;2.10;1.50;;;;;;;2.42;72.55;99884.66;5055561;28;20110;-77
2021/11/19 01:30:03;;;;;;;2.08;1.33;;;;;;;2.29;73.36;99875.31;5037664;28;20267;-71
2021/11/19 01:32:29;;;;;;;1.88;1.45;;;;;;;1.67;73.47;99774.66;5054745;28;20043;-74
2021/11/19 01:34:54;;;;;;;3.87;1.30;;;;;;;2.27;73.46;99890.38;5055839;28;20033;-74
2021/11/19 01:37:21;;;;;;;3.63;1.70;;;;;;;2.20;73.92;99884.81;5055941;28;20032;-74
2021/11/19 01:39:47;;;;;;;3.07;1.30;;;;;;;2.10;74.22;99890.03;5055900;28;20037;-73
2021/11/19 01:42:20;;;;;;;2.97;1.23;;;;;;;2.17;74.51;99890.34;5056272;28;20381;-76
2021/11/19 01:45:04;;;;;;;3.63;1.27;;;;;;;2.18;74.34;99887.56;5055304;28;20774;-77
2021/11/19 01:47:32;;;;;;;1.87;1.20;;;;;;;2.20;74.53;99886.63;5055546;28;20298;-74
2021/11/19 01:49:58;;;;;;;3.97;2.50;;;;;;;2.20;74.04;99889.25;5054194;28;20670;-72
2021/11/19 01:52:39;;;;;;;1.60;1.47;;;;;;;2.20;74.20;99878.72;5055225;28;20279;-75
2021/11/19 01:55:15;;;;;;;2.60;1.50;;;;;;;2.35;73.83;99898.47;5055911;28;20317;-73
2021/11/19 01:57:47;;;;;;;2.10;1.67;;;;;;;2.32;73.68;99888.22;5055588;28;20263;-76
2021/11/19 02:00:37;;;;;;;2.83;1.40;;;;;;;2.46;73.40;99898.34;5054752;28;20279;-73
2021/11/19 02:03:04;;;;;;;3.60;1.50;;;;;;;2.47;72.80;99887.72;5053959;28;20280;-76
2021/11/19 02:05:36;;;;;;;2.90;1.67;;;;;;;2.58;73.16;99905.19;5053944;28;20358;-73
2021/11/19 02:08:13;;;;;;;3.63;1.57;;;;;;;2.50;72.63;99884.00;5054322;28;20361;-74
2021/11/19 02:11:07;;;;;;;2.80;2.17;;;;;;;2.56;73.04;99906.28;5052866;28;20743;-75
2021/11/19 02:13:40;;;;;;;3.50;2.57;;;;;;;2.51;72.87;99906.69;5049070;28;20824;-74
2021/11/19 02:16:23;;;;;;;1.47;1.37;;;;;;;2.25;73.54;99872.13;5053820;28;20650;-71
2021/11/19 02:18:55;;;;;;;1.77;1.37;;;;;;;2.41;73.65;99903.19;5054312;28;20267;-74
2021/11/19 02:21:27;;;;;;;2.97;1.23;;;;;;;2.14;73.83;99857.28;5053744;28;20382;-71
2021/11/19 02:24:18;;;;;;;1.43;1.33;;;;;;;2.41;73.37;99897.94;5053744;28;20354;-73
2021/11/19 02:26:51;;;;;;;1.57;1.20;;;;;;;2.44;73.67;99906.38;5053163;28;20328;-73
2021/11/19 02:29:17;;;;;;;1.37;1.20;;;;;;;1.99;73.10;99821.81;5052647;28;20267;-72
2021/11/19 02:31:52;;;;;;;2.03;1.50;;;;;;;2.54;73.32;99903.78;5053651;28;20337;-71
2021/11/19 02:34:19;;;;;;;4.10;1.30;;;;;;;2.54;73.51;99911.66;5052250;28;20762;-73
2021/11/19 02:36:50;;;;;;;2.60;1.43;;;;;;;2.42;73.34;99899.59;5053662;28;20267;-72
2021/11/19 02:39:47;;;;;;;3.33;1.97;;;;;;;2.51;73.66;99908.47;5052497;28;20267;-72
2021/11/19 02:42:38;;;;;;;1.77;1.50;;;;;;;2.26;73.93;99867.69;5048839;28;20345;-72
2021/11/19 02:45:14;;;;;;;2.43;1.23;;;;;;;2.46;74.26;99912.34;5049205;28;20263;-73
2021/11/19 02:47:41;;;;;;;5.73;1.83;;;;;;;2.36;73.97;99879.09;5051885;28;20677;-73
2021/11/19 02:50:07;;;;;;;1.67;1.40;;;;;;;2.46;73.82;99899.19;5086045;28;20271;-73
2021/11/19 02:52:36;;;;;;;1.70;1.30;;;;;;;2.41;73.88;99871.66;5053360;28;20629;-71
2021/11/19 02:55:04;;;;;;;;;;;;;;;2.63;73.75;99897.75;5053676;28;20766;-73
2021/11/19 02:57:30;;;;;;;1.90;1.40;;;;;;;2.57;73.37;99895.63;5053192;28;20295;-73
2021/11/19 02:59:57;;;;;;;1.53;1.43;;;;;;;2.51;74.02;99892.69;5052830;28;20290;-72
2021/11/19 03:02:32;;;;;;;1.30;1.20;;;;;;;2.44;74.42;99879.25;5052530;28;20099;-73
2021/11/19 03:05:02;;;;;;;4.10;2.03;;;;;;;2.44;74.80;99893.25;5053176;28;20280;-72
2021/11/19 03:07:29;;;;;;;3.63;1.47;;;;;;;2.40;74.67;99902.34;5053035;28;20271;-72
2021/11/19 03:10:04;;;;;;;2.03;1.57;;;;;;;2.51;74.74;99906.69;5052320;28;20279;-73
2021/11/19 03:12:33;;;;;;;1.40;1.10;;;;;;;2.54;74.84;99895.91;5053822;28;20293;-73
2021/11/19 03:15:02;;;;;;;9.30;3.47;;;;;;;2.66;74.34;99904.53;5053221;28;20302;-72
2021/11/19 03:17:28;;;;;;;5.10;1.30;;;;;;;2.63;74.56;99889.88;5053083;28;20279;-73
2021/11/19 03:19:55;;;;;;;3.43;1.40;;;;;;;2.73;73.61;99898.59;5053145;28;20359;-73
2021/11/19 03:22:23;;;;;;;3.00;1.10;;;;;;;2.71;74.83;99883.94;5052913;28;20037;-73
2021/11/19 03:24:49;;;;;;;6.38;1.30;;;;;;;2.73;74.46;99882.84;5052650;28;20765;-73
2021/11/19 03:27:16;;;;;;;2.50;1.37;;;;;;;2.85;74.36;99901.94;5051791;28;20528;-74
2021/11/19 03:29:44;;;;;;;3.90;1.30;;;;;;;2.87;74.96;99896.56;5052871;28;20279;-74
2021/11/19 03:32:13;;;;;;;3.20;1.57;;;;;;;2.80;74.86;99873.44;5053012;28;20272;-74
2021/11/19 03:34:39;;;;;;;2.07;1.47;;;;;;;2.90;75.61;99891.88;5051349;28;20267;-75
2021/11/19 03:37:05;;;;;;;2.93;1.40;;;;;;;2.95;75.08;99894.94;5052775;28;20312;-75
2021/11/19 03:39:32;;;;;;;5.60;1.20;;;;;;;2.97;75.86;99889.53;5052619;28;20443;-73
2021/11/19 03:42:00;;;;;;;2.27;1.27;;;;;;;3.01;75.36;99904.09;5052833;28;20772;-74
2021/11/19 03:44:30;;;;;;;1.60;1.30;;;;;;;3.04;75.76;99898.53;5052675;28;20359;-74
2021/11/19 03:47:12;;;;;;;1.57;1.47;;;;;;;3.08;75.74;99902.56;5052830;28;20260;-74
2021/11/19 03:49:39;;;;;;;5.80;1.40;;;;;;;3.04;75.72;99901.19;5034350;28;20272;-73
2021/11/19 03:52:21;;;;;;;2.57;1.20;;;;;;;2.93;77.09;99898.69;5035256;28;20275;-71
2021/11/19 03:54:49;;;;;;;2.60;1.50;;;;;;;2.76;77.94;99884.34;5054921;28;20857;-72
2021/11/19 03:57:17;;;;;;;2.30;1.27;;;;;;;2.84;77.75;99888.94;5053116;28;20795;-72
2021/11/19 03:59:43;;;;;;;1.53;1.30;;;;;;;2.91;78.45;99890.09;5053891;28;20303;-73
2021/11/19 04:02:13;;;;;;;3.50;1.95;;;;;;;2.90;77.86;99891.88;5053306;28;20307;-70
2021/11/19 04:04:39;;;;;;;1.40;1.30;;;;;;;2.88;77.14;99879.81;5052148;28;20041;-67
2021/11/19 04:07:09;;;;;;;1.43;1.20;;;;;;;2.84;77.81;99874.00;5052351;28;20263;-70
2021/11/19 04:09:34;;;;;;;1.60;1.10;;;;;;;2.70;77.46;99883.09;5051881;28;20271;-71
2021/11/19 04:12:02;;;;;;;3.90;1.60;;;;;;;2.56;77.38;99874.72;5052144;28;20274;-71
2021/11/19 04:14:28;;;;;;;5.13;1.40;;;;;;;2.45;77.32;99870.41;5049972;28;20044;-69
2021/11/19 04:16:58;;;;;;;4.33;1.90;;;;;;;2.27;77.51;99837.84;5052003;28;20279;-70
2021/11/19 04:19:33;;;;;;;6.30;1.60;;;;;;;2.55;77.45;99879.16;5051488;28;20275;-75
2021/11/19 04:22:13;;;;;;;1.40;1.30;;;;;;;2.64;77.87;99878.38;5049698;28;20295;-76
2021/11/19 04:24:49;;;;;;;4.70;1.93;;;;;;;2.37;77.38;99829.03;5051064;28;20279;-72
2021/11/19 04:27:15;;;;;;;1.87;1.57;;;;;;;2.56;77.63;99849.28;5050989;28;20263;-75
2021/11/19 04:29:53;;;;;;;3.63;1.60;;;;;;;2.81;77.39;99882.16;5051179;28;20756;-75
2021/11/19 04:32:21;;;;;;;2.93;1.40;;;;;;;2.85;77.49;99869.56;5051148;28;20314;-72
2021/11/19 04:34:57;;;;;;;2.17;1.57;;;;;;;2.55;77.31;99831.84;5033228;28;20322;-70
2021/11/19 04:37:26;;;;;;;3.10;2.00;;;;;;;2.86;76.98;99869.44;5051160;28;20263;-72
2021/11/19 04:39:52;;;;;;;3.57;1.70;;;;;;;2.99;76.55;99877.91;5049501;28;20267;-71
2021/11/19 04:42:20;;;;;;;2.23;1.70;;;;;;;2.98;75.92;99873.63;5049049;28;20291;-74
2021/11/19 04:44:49;;;;;;;1.97;1.77;;;;;;;3.03;75.69;99873.22;5049438;28;20385;-72
2021/11/19 04:47:15;;;;;;;4.50;2.03;;;;;;;3.06;75.01;99881.66;5050741;28;20846;-73
2021/11/19 04:49:41;;;;;;;2.30;1.60;;;;;;;3.02;75.25;99871.56;5050275;28;20753;-73
2021/11/19 04:52:09;;;;;;;5.87;1.50;;;;;;;3.00;75.11;99878.75;5050551;28;20264;-72
2021/11/19 04:54:35;;;;;;;2.53;1.70;;;;;;;3.02;75.74;99876.81;5051024;28;20061;-72
2021/11/19 04:57:01;;;;;;;1.93;1.30;;;;;;;2.99;76.41;99871.81;5053933;28;20076;-72
2021/11/19 04:59:27;;;;;;;3.73;1.43;;;;;;;2.99;76.77;99874.44;5054666;28;20494;-74
2021/11/19 05:01:59;;;;;;;3.00;1.40;;;;;;;2.97;78.32;99869.34;5052995;28;20329;-69
2021/11/19 05:04:24;;;;;;;2.27;1.40;;;;;;;2.97;78.51;99879.03;5054710;28;20516;-71
2021/11/19 05:06:50;;;;;;;6.40;1.87;;;;;;;2.94;78.68;99874.03;5054537;28;20287;-69
2021/11/19 05:09:16;;;;;;;8.23;1.83;;;;;;;2.93;78.96;99869.75;5054632;28;20448;-72
2021/11/19 05:11:50;;;;;;;1.43;1.33;;;;;;;2.74;79.69;99858.19;5054652;28;20353;-71
2021/11/19 05:14:18;;;;;;;3.93;1.77;;;;;;;2.62;79.47;99848.78;5054765;28;20083;-70
2021/11/19 05:16:44;;;;;;;5.83;1.70;;;;;;;2.66;79.38;99839.66;5054458;28;20763;-72
2021/11/19 05:19:12;;;;;;;1.97;1.80;;;;;;;2.83;79.68;99863.59;5054427;28;20386;-72
2021/11/19 05:21:38;;;;;;;3.27;1.73;;;;;;;2.88;79.42;99870.13;5054311;28;20291;-70
2021/11/19 05:24:06;;;;;;;3.57;1.83;;;;;;;2.76;79.44;99861.53;5053058;28;20648;-70
2021/11/19 05:26:31;;;;;;;2.17;1.57;;;;;;;2.74;78.92;99878.41;5054364;28;20033;-72
2021/11/19 05:28:59;;;;;;;1.97;1.63;;;;;;;2.72;79.12;99877.72;5054908;28;20263;-73
2021/11/19 05:31:25;;;;;;;5.10;1.93;;;;;;;2.71;78.47;99874.25;5054943;28;20272;-72
2021/11/19 05:33:52;;;;;;;7.30;1.57;;;;;;;2.71;77.98;99868.16;5054869;28;20322;-75
2021/11/19 05:36:18;;;;;;;2.93;1.93;;;;;;;2.76;77.59;99874.66;5053935;28;20314;-70
2021/11/19 05:38:44;;;;;;;5.03;1.70;;;;;;;2.76;77.09;99861.53;5052928;28;20272;-70
2021/11/19 05:41:12;;;;;;;4.00;1.40;;;;;;;2.82;76.65;99860.16;5052749;28;20394;-71
2021/11/19 05:43:40;;;;;;;2.17;1.88;;;;;;;2.78;76.22;99843.81;5052133;28;20685;-69
2021/11/19 05:46:07;;;;;;;3.77;1.57;;;;;;;2.86;76.68;99852.81;5054156;28;20068;-71
2021/11/19 05:48:32;;;;;;;6.17;1.77;;;;;;;2.81;76.65;99842.72;5053526;28;20882;-69
2021/11/19 05:50:59;;;;;;;4.20;2.03;;;;;;;2.84;76.55;99852.13;5052824;28;20358;-74
2021/11/19 05:53:25;;;;;;;4.20;2.13;;;;;;;2.85;76.51;99845.91;5053666;28;20071;-70
2021/11/19 05:55:51;;;;;;;2.60;1.70;;;;;;;2.89;75.89;99839.41;5053859;28;20611;-73
2021/11/19 05:58:19;;;;;;;2.73;1.50;;;;;;;2.86;76.11;99843.13;5054155;28;20143;-68
2021/11/19 06:00:51;;;;;;;7.17;1.87;;;;;;;2.90;75.68;99835.81;5054378;28;20381;-69
2021/11/19 06:03:18;;;;;;;4.27;1.50;;;;;;;2.79;76.11;99807.84;5054005;28;20275;-69
2021/11/19 06:05:44;;;;;;;8.80;1.80;;;;;;;2.97;76.85;99834.31;5053751;28;20689;-74
2021/11/19 06:08:09;;;;;;;3.73;1.93;;;;;;;2.98;76.52;99836.78;5054940;28;20256;-73
2021/11/19 06:10:41;;;;;;;4.10;2.17;;;;;;;2.84;77.45;99821.41;5052486;28;20044;-71
2021/11/19 06:13:11;;;;;;;4.93;2.13;;;;;;;2.96;77.35;99832.66;5054139;28;20449;-72
2021/11/19 06:15:44;;;;;;;3.63;2.20;;;;;;;2.96;77.97;99824.75;5052621;28;20271;-72
2021/11/19 06:18:18;;;;;;;4.37;2.23;;;;;;;2.95;78.26;99823.09;5054841;28;20343;-67
2021/11/19 06:20:48;;;;;;;5.03;2.57;;;;;;;2.92;78.75;99828.63;5054691;28;20294;-73
2021/11/19 06:23:18;;;;;;;4.27;2.07;;;;;;;2.88;78.72;99811.44;5054242;28;20279;-71
2021/11/19 06:25:44;;;;;;;6.30;2.60;;;;;;;2.89;79.38;99807.84;5053058;28;20362;-70
2021/11/19 06:28:15;;;;;;;5.17;2.97;;;;;;;2.90;79.19;99804.28;5053482;28;20788;-66
2021/11/19 06:30:41;;;;;;;8.20;3.87;;;;;;;2.94;79.62;99814.38;5053237;28;20267;-67
2021/11/19 06:33:07;;;;;;;5.80;4.00;;;;;;;2.99;80.00;99819.22;5053528;28;20271;-66
2021/11/19 06:35:33;;;;;;;7.10;3.80;;;;;;;2.94;80.14;99821.44;5053787;28;20404;-65
2021/11/19 06:37:59;;;;;;;8.10;3.13;;;;;;;2.82;80.56;99823.34;5053811;28;20037;-67
2021/11/19 06:40:28;;;;;;;7.50;3.83;;;;;;;2.83;80.89;99814.47;5053905;28;20037;-63
2021/11/19 06:42:57;;;;;;;7.33;3.97;;;;;;;2.73;80.72;99797.88;5053844;28;20291;-72
2021/11/19 06:45:24;;;;;;;8.05;4.78;;;;;;;2.83;80.41;99808.38;5053739;28;20279;-69
2021/11/19 06:47:50;;;;;;;5.00;3.77;;;;;;;2.73;80.87;99796.06;5052493;28;20041;-76
2021/11/19 06:50:20;;;;;;;6.37;3.50;;;;;;;2.82;80.30;99806.72;5051469;28;20641;-71
2021/11/19 06:52:46;;;;;;;6.90;3.60;;;;;;;2.86;80.36;99802.84;5053147;28;20029;-66
2021/11/19 06:55:13;;;;;;;7.97;4.53;;;;;;;2.84;80.45;99812.69;5052705;28;20272;-65
2021/11/19 06:57:39;;;;;;;10.33;4.47;;;;;;;2.89;80.44;99815.72;5052988;28;20040;-70
2021/11/19 07:00:09;;;;;;;7.83;3.97;;;;;;;2.97;80.44;99814.09;5052915;28;20362;-65
2021/11/19 07:02:34;;;;;;;6.53;5.03;;;;;;;3.02;80.48;99821.56;5052605;28;20299;-62
2021/11/19 07:05:00;;;;;;;6.23;3.73;;;;;;;2.97;80.25;99818.53;5052274;28;20685;-64
2021/11/19 07:07:25;;;;;;;5.43;3.50;;;;;;;3.06;79.80;99815.91;5050079;28;20384;-67
2021/11/19 07:09:51;;;;;;;7.87;4.03;;;;;;;3.00;79.60;99800.66;5052338;28;20377;-73
2021/11/19 07:12:16;;;;;;;5.60;3.80;;;;;;;2.92;79.60;99792.63;5051128;28;20089;-67
2021/11/19 07:14:43;;;;;;;5.37;3.50;;;;;;;2.98;79.35;99812.28;5052793;28;20072;-75
2021/11/19 07:17:09;;;;;;;10.07;4.30;;;;;;;2.54;79.90;99751.34;5052417;28;20037;-67
2021/11/19 07:19:36;;;;;;;6.47;4.00;;;;;;;2.96;79.87;99811.59;5052236;28;20630;-67
2021/11/19 07:22:27;;;;;;;9.00;4.13;;;;;;;2.91;79.49;99805.94;5052178;28;20074;-72
2021/11/19 07:24:53;;;;;;;7.43;3.40;;;;;;;2.97;80.13;99805.38;5052466;28;20484;-73
2021/11/19 07:27:22;;;;;;;10.87;3.77;;;;;;;3.04;79.74;99817.84;5052513;28;20033;-70
2021/11/19 07:30:09;;;;;;;8.80;4.17;;;;;;;3.11;79.06;99823.38;5050953;28;20033;-73
2021/11/19 07:32:47;;;;;;;7.03;4.40;;;;;;;3.08;79.06;99807.88;5050527;28;20301;-73
2021/11/19 07:35:21;;;;;;;5.47;3.28;;;;;;;2.93;78.81;99793.47;5050318;28;20337;-70
2021/11/19 07:37:47;;;;;;;7.57;4.63;;;;;;;2.92;79.34;99799.69;5051912;28;20048;-69
2021/11/19 07:40:25;;;;;;;8.20;4.03;;;;;;;2.83;79.54;99789.97;5051747;28;20346;-74
2021/11/19 07:42:54;;;;;;;6.97;5.13;;;;;;;2.82;79.17;99794.41;5052640;28;20396;-69
2021/11/19 07:45:20;;;;;;;;;;;;;;;2.90;79.78;99809.53;5051797;28;20195;-78
2021/11/19 07:47:48;;;;;;;7.73;3.70;;;;;;;2.80;79.73;99788.47;5051516;28;20011;-66
2021/11/19 07:50:24;;;;;;;8.98;4.93;;;;;;;2.82;79.58;99788.31;5052033;28;20074;-72
2021/11/19 07:52:50;;;;;;;7.40;4.27;;;;;;;2.93;79.36;99793.47;5050579;28;20044;-72
2021/11/19 07:55:16;;;;;;;7.23;4.13;;;;;;;2.97;79.03;99792.22;5052081;28;20823;-73
2021/11/19 07:57:41;;;;;;;11.37;4.10;;;;;;;2.96;79.49;99791.41;5051350;28;20061;-75
2021/11/19 08:00:11;;;;;;;5.87;5.23;;;;;;;2.84;79.04;99755.66;5050597;28;20126;-76
2021/11/19 08:02:38;;;;;;;8.43;4.43;;;;;;;3.08;78.68;99785.00;5051925;28;20428;-70
2021/11/19 08:05:05;;;;;;;7.10;4.17;;;;;;;3.03;78.76;99783.78;5051605;28;20368;-70
2021/11/19 08:07:32;;;;;;;8.30;4.27;;;;;;;3.12;78.77;99793.47;5051686;28;20267;-72
2021/11/19 08:09:58;;;;;;;6.30;4.27;;;;;;;3.22;78.47;99791.69;5051938;28;20271;-67
2021/11/19 08:12:25;;;;;;;6.10;4.53;;;;;;;3.26;78.20;99784.34;5050140;28;20260;-66
2021/11/19 08:14:50;;;;;;;8.27;4.60;;;;;;;3.32;78.13;99789.84;5051649;28;20777;-63
2021/11/19 08:17:27;;;;;;;6.53;4.47;;;;;;;3.31;78.29;99776.84;5051768;28;20271;-68
2021/11/19 08:19:54;;;;;;;7.53;4.27;;;;;;;3.27;78.14;99776.28;5049953;28;20136;-68
2021/11/19 08:22:20;;;;;;;6.07;5.00;;;;;;;3.27;78.42;99770.19;5051201;28;20344;-66
2021/11/19 08:24:47;;;;;;;8.83;5.10;;;;;;;2.83;77.72;99709.28;5051057;28;20271;-71
2021/11/19 08:27:20;;;;;;;11.60;6.33;;;;;;;3.28;78.26;99777.97;5051395;28;20368;-69
2021/11/19 08:29:49;;;;;;;7.70;5.57;;;;;;;3.38;78.01;99783.19;5052195;28;20279;-67
2021/11/19 08:32:16;;;;;;;13.33;5.90;;;;;;;3.27;77.75;99763.13;5055787;28;20689;-66
2021/11/19 08:34:42;;;;;;;9.23;6.10;;;;;;;3.40;77.77;99766.28;5055747;28;20275;-68
2021/11/19 08:37:08;;;;;;;9.93;6.00;;;;;;;3.50;77.40;99781.25;5054806;28;20329;-65
2021/11/19 08:39:34;;;;;;;10.57;5.47;;;;;;;3.39;77.48;99775.16;5055769;28;20040;-69
2021/11/19 08:42:01;;;;;;;11.33;6.80;;;;;;;3.35;77.90;99776.41;5055201;28;20303;-64
2021/11/19 08:44:27;;;;;;;11.33;6.30;;;;;;;3.34;77.82;99780.03;5054128;28;20037;-64
2021/11/19 08:46:55;;;;;;;9.07;6.57;;;;;;;3.26;77.51;99753.59;5055555;28;20271;-64
2021/11/19 08:49:25;;;;;;;13.80;6.00;;;;;;;3.35;77.71;99771.16;5055691;28;20310;-62
2021/11/19 08:51:51;;;;;;;12.17;6.60;;;;;;;3.47;77.92;99765.72;5055186;28;20468;-64
2021/11/19 08:54:17;;;;;;;13.87;7.13;;;;;;;3.42;77.58;99756.44;5055365;28;20268;-67
2021/11/19 08:56:49;;;;;;;17.37;8.70;;;;;;;3.48;77.55;99756.88;5055043;28;20267;-64
2021/11/19 08:59:16;;;;;;;13.47;7.23;;;;;;;3.06;77.47;99689.63;5055054;28;20037;-64
2021/11/19 09:01:47;;;;;;;11.93;6.70;;;;;;;3.48;77.24;99756.88;5055448;28;20299;-69
2021/11/19 09:04:13;;;;;;;15.00;7.83;;;;;;;3.31;77.91;99751.34;5055360;28;20342;-72
2021/11/19 09:06:40;;;;;;;10.57;6.57;;;;;;;3.08;78.71;99728.94;5054815;28;20290;-64
2021/11/19 09:09:07;;;;;;;13.13;6.70;;;;;;;3.17;78.46;99733.34;5054542;28;20480;-67
2021/11/19 09:11:34;;;;;;;11.80;7.17;;;;;;;3.11;78.73;99729.50;5054941;28;20267;-68
2021/11/19 09:14:00;;;;;;;11.70;7.57;;;;;;;3.23;78.95;99732.81;5053731;28;20287;-70
2021/11/19 09:16:31;;;;;;;10.53;6.33;;;;;;;3.22;78.43;99715.38;5055627;28;20272;-76
2021/11/19 09:19:10;;;;;;;17.83;7.93;;;;;;;3.29;78.66;99732.25;5055930;28;20041;-77
2021/11/19 09:22:16;;;;;;;12.40;7.93;;;;;;;3.36;78.02;99728.06;5056356;28;20306;-82
2021/11/19 09:24:42;;;;;;;15.93;6.77;;;;;;;3.42;77.37;99718.78;5055212;28;20271;-69
2021/11/19 09:27:34;;;;;;;11.17;6.27;;;;;;;3.48;76.91;99725.28;5054895;28;20302;-69
2021/11/19 09:30:14;;;;;;;16.30;7.53;;;;;;;3.46;76.24;99714.06;5053908;28;20767;-69
2021/11/19 09:32:42;;;;;;;10.73;5.87;;;;;;;3.47;76.99;99711.31;5053313;28;20811;-66
2021/11/19 09:35:07;;;;;;;10.97;6.33;;;;;;;3.39;76.60;99709.38;5053267;28;20358;-71
2021/11/19 09:37:33;;;;;;;14.23;7.60;;;;;;;3.42;76.38;99709.06;5054021;28;20290;-68
2021/11/19 09:39:59;;;;;;;10.43;5.70;;;;;;;3.41;76.11;99691.63;5054416;28;20135;-72
2021/11/19 09:42:38;;;;;;;11.83;6.97;;;;;;;3.63;76.45;99714.16;5053325;28;20084;-68
2021/11/19 09:45:03;;;;;;;;;;;;;;;3.70;76.36;99722.28;5054545;28;20033;-69
2021/11/19 09:47:58;;;;;;;12.20;6.27;;;;;;;3.76;76.00;99716.47;5053662;28;20384;-71
2021/11/19 09:50:39;;;;;;;13.30;6.43;;;;;;;3.74;76.13;99721.03;5053704;28;20075;-71
2021/11/19 09:53:41;;;;;;;10.17;6.47;;;;;;;3.73;75.69;99714.09;5053823;28;20637;-67
2021/11/19 09:56:28;;;;;;;6.67;4.67;;;;;;;3.68;75.32;99692.66;5052794;28;20264;-70
2021/11/19 09:59:13;;;;;;;10.73;6.60;;;;;;;3.54;75.42;99672.06;5052481;28;20279;-67
2021/11/19 10:01:58;;;;;;;19.90;6.47;;;;;;;3.76;75.73;99707.72;5053702;28;20358;-71
2021/11/19 10:04:47;;;;;;;8.83;6.07;;;;;;;3.73;76.12;99708.84;5053735;28;20299;-69
2021/11/19 10:07:28;;;;;;;8.77;6.47;;;;;;;3.61;76.38;99704.75;5052536;28;20847;-69
2021/11/19 10:10:30;;;;;;;10.27;5.30;;;;;;;3.67;76.70;99707.63;5053160;28;20278;-73
2021/11/19 10:13:09;;;;;;;13.67;7.03;;;;;;;3.69;76.13;99696.94;5035892;28;20279;-72
2021/11/19 10:15:41;;;;;;;;;;;;;;;3.81;76.06;99695.81;5053986;28;20638;-68
2021/11/19 10:18:30;;;;;;;11.53;6.57;;;;;;;3.67;76.56;99657.59;5052373;28;20062;-69
2021/11/19 10:21:13;;;;;;;8.33;5.40;;;;;;;3.88;76.38;99675.81;5052269;28;20790;-70
2021/11/19 10:23:48;;;;;;;8.80;6.03;;;;;;;3.72;76.15;99665.06;5052241;28;20299;-75
2021/11/19 10:26:21;;;;;;;7.53;4.93;;;;;;;3.62;76.42;99661.63;5053599;28;20297;-67
2021/11/19 10:28:55;;;;;;;10.70;5.87;;;;;;;3.68;76.86;99674.22;5053378;28;20373;-70
2021/11/19 10:31:23;;;;;;;6.67;4.77;;;;;;;3.61;76.80;99666.06;5053953;28;20670;-69
2021/11/19 10:34:21;;;;;;;9.73;4.90;;;;;;;3.64;76.86;99657.88;5053447;28;20268;-65
2021/11/19 10:37:02;;;;;;;10.43;5.17;;;;;;;3.65;77.21;99653.44;5051236;28;20294;-71
2021/11/19 10:39:41;;;;;;;9.43;5.27;;;;;;;3.65;77.06;99648.19;5053186;28;20604;-65
2021/11/19 10:42:06;;;;;;;;;;;;;;;3.66;77.08;99649.84;5053398;28;20398;-67
2021/11/19 10:45:07;;;;;;;7.93;5.20;;;;;;;3.60;77.45;99643.34;5052767;28;20035;-68
2021/11/19 10:48:06;;;;;;;9.83;5.97;;;;;;;3.61;77.49;99647.66;5030697;28;20496;-71
2021/11/19 10:50:50;;;;;;;7.93;5.10;;;;;;;3.65;77.28;99651.66;5051196;28;20302;-69
2021/11/19 10:54:05;;;;;;;8.90;5.27;;;;;;;3.57;77.21;99630.50;5052029;28;20267;-66
2021/11/19 10:56:51;;;;;;;8.93;5.80;;;;;;;3.54;77.31;99643.13;5051514;28;20311;-70
2021/11/19 10:59:20;;;;;;;14.20;5.17;;;;;;;3.58;77.49;99629.50;5052917;28;20279;-71
2021/11/19 11:02:03;;;;;;;11.17;6.23;;;;;;;3.57;76.89;99613.88;5052769;28;20334;-73
2021/11/19 11:04:48;;;;;;;8.80;5.67;;;;;;;3.44;76.74;99593.13;5053361;28;20052;-71
2021/11/19 11:07:30;;;;;;;8.47;4.97;;;;;;;3.54;76.31;99604.47;5034969;28;20279;-70
2021/11/19 11:09:58;;;;;;;9.50;5.27;;;;;;;3.67;76.76;99609.38;5052694;28;20294;-67
2021/11/19 11:12:45;;;;;;;11.48;5.88;;;;;;;3.65;76.51;99606.06;5051379;28;20263;-67
2021/11/19 11:15:14;;;;;;;10.40;5.40;;;;;;;3.62;76.65;99601.91;5052682;28;20036;-75
2021/11/19 11:18:07;;;;;;;9.10;5.82;;;;;;;3.57;77.24;99598.91;5051343;28;20329;-71
2021/11/19 11:20:39;;;;;;;6.93;4.70;;;;;;;3.56;77.25;99591.16;5051133;28;20381;-72
2021/11/19 11:23:50;;;;;;;9.50;5.33;;;;;;;3.56;76.67;99591.97;5051418;28;20298;-71
2021/11/19 11:26:35;;;;;;;8.07;5.83;;;;;;;3.58;77.14;99582.13;5051220;28;20271;-75
2021/11/19 11:29:21;;;;;;;12.17;5.10;;;;;;;3.49;77.45;99584.81;5041079;28;20309;-66
2021/11/19 11:32:12;;;;;;;13.07;5.53;;;;;;;3.49;77.37;99579.56;5050577;28;20267;-67
2021/11/19 11:34:44;;;;;;;8.67;5.10;;;;;;;3.39;77.83;99569.88;5052429;28;20276;-64
2021/11/19 11:37:13;;;;;;;10.63;5.80;;;;;;;3.32;77.81;99573.25;5052147;28;20275;-68
2021/11/19 11:39:57;;;;;;;8.77;5.37;;;;;;;3.30;78.40;99580.47;5033504;28;20647;-71
2021/11/19 11:42:35;;;;;;;11.83;5.33;;;;;;;3.29;77.75;99552.47;5051411;28;20694;-63
2021/11/19 11:45:31;;;;;;;9.98;5.80;;;;;;;3.17;77.90;99528.16;5051561;28;20280;-64
2021/11/19 11:48:06;;;;;;;12.70;5.93;;;;;;;3.32;78.16;99531.97;5014181;28;20068;-73
2021/11/19 11:50:59;;;;;;;8.50;6.90;;;;;;;3.35;77.57;99541.38;5047048;28;20921;-67
2021/11/19 11:53:48;;;;;;;7.50;5.43;;;;;;;3.32;78.11;99541.66;5032076;28;20756;-65
2021/11/19 11:56:21;;;;;;;11.20;5.57;;;;;;;3.35;78.34;99547.47;5046970;28;20826;-64
2021/11/19 11:58:47;;;;;;;10.43;6.30;;;;;;;3.45;77.85;99557.94;5014124;28;20110;-69
2021/11/19 12:01:32;;;;;;;11.83;7.63;;;;;;;3.43;77.63;99531.75;5031756;28;20733;-67
2021/11/19 12:04:21;;;;;;;11.33;8.07;;;;;;;3.35;77.72;99505.34;5030294;28;20083;-63